Time;durP1;ratioP1;P1;durP2;ratioP2;P2;SDS_P1;SDS_P2;PMS_P1;PMS_P2;Temp;Humidity;BMP_temperature;BMP_pressure;BME280_temperature;BME280_humidity;BME280_pressure;Samples;Min_cycle;Max_cycle;Signal;HPM_P1;HPM_P2
2020/12/07 00:01:07;;;;;;;63.77;28.77;;;;;;;12.86;59.52;99658.91;5014312;28;20068;-61
2020/12/07 00:03:32;;;;;;;63.10;29.65;;;;;;;12.66;61.09;99641.38;5014262;28;20478;-61
2020/12/07 00:05:58;;;;;;;59.37;27.60;;;;;;;12.76;60.62;99638.91;5014048;28;20080;-61
2020/12/07 00:08:23;;;;;;;55.37;27.80;;;;;;;12.86;60.53;99661.59;5014114;28;20437;-60
2020/12/07 00:10:49;;;;;;;63.40;28.80;;;;;;;12.95;59.18;99648.63;5013960;28;20445;-60
2020/12/07 00:13:17;;;;;;;64.70;28.63;;;;;;;13.13;58.42;99645.75;5014601;28;20057;-61
2020/12/07 00:15:42;;;;;;;65.20;31.33;;;;;;;13.31;57.79;99662.69;5013742;28;20117;-60
2020/12/07 00:18:08;;;;;;;64.67;28.27;;;;;;;13.31;57.26;99652.75;5014455;28;20133;-59
2020/12/07 00:20:33;;;;;;;62.17;28.20;;;;;;;13.38;56.99;99662.50;4996949;28;20063;-59
2020/12/07 00:22:59;;;;;;;56.67;28.30;;;;;;;13.13;58.90;99651.09;5013712;28;20037;-61
2020/12/07 00:25:24;;;;;;;54.50;28.93;;;;;;;13.38;57.23;99647.22;5014326;28;20402;-61
2020/12/07 00:27:50;;;;;;;59.43;27.10;;;;;;;13.40;57.76;99649.69;5013340;28;20136;-61
2020/12/07 00:30:15;;;;;;;53.27;27.33;;;;;;;12.32;62.85;99647.41;5012958;28;20038;-60
2020/12/07 00:32:41;;;;;;;62.50;29.63;;;;;;;13.31;58.72;99644.69;5013610;28;20053;-57
2020/12/07 00:35:06;;;;;;;50.90;22.65;;;;;;;13.25;58.39;99626.03;5014107;28;20476;-60
2020/12/07 00:37:32;;;;;;;54.13;27.23;;;;;;;12.68;61.94;99627.75;5014197;28;20034;-60
2020/12/07 00:39:57;;;;;;;64.10;27.57;;;;;;;12.65;62.83;99629.03;4995889;28;20042;-60
2020/12/07 00:42:23;;;;;;;60.60;28.57;;;;;;;12.75;62.00;99623.03;5014032;28;20030;-61
2020/12/07 00:44:50;;;;;;;58.58;28.13;;;;;;;12.89;62.35;99645.84;4995722;28;20061;-60
2020/12/07 00:47:16;;;;;;;64.90;28.37;;;;;;;12.33;65.39;99626.78;5013842;28;20038;-61
2020/12/07 00:49:42;;;;;;;61.20;28.65;;;;;;;12.25;66.30;99627.97;5013837;28;20436;-61
2020/12/07 00:52:08;;;;;;;66.22;27.85;;;;;;;12.85;62.22;99619.72;4996191;28;20064;-60
2020/12/07 00:54:35;;;;;;;59.05;27.30;;;;;;;13.01;62.45;99621.63;4996316;28;20466;-61
2020/12/07 00:57:00;;;;;;;;;;;;;;;13.17;60.94;99609.28;4979665;28;20038;-60
2020/12/07 00:59:31;;;;;;;62.40;29.80;;;;;;;12.71;63.95;99606.63;5013627;28;19913;-60
2020/12/07 01:01:58;;;;;;;58.33;28.20;;;;;;;13.18;61.94;99604.75;5012759;28;20401;-60
2020/12/07 01:04:24;;;;;;;64.90;29.95;;;;;;;12.29;67.20;99596.16;4995954;28;20046;-60
2020/12/07 01:06:51;;;;;;;62.55;29.05;;;;;;;12.66;65.62;99619.91;5011612;28;20048;-61
2020/12/07 01:09:18;;;;;;;;;;;;;;;12.64;65.89;99629.28;4996117;28;20100;-60
2020/12/07 01:11:45;;;;;;;63.58;27.83;;;;;;;12.42;68.12;99636.09;5012756;28;19917;-58
2020/12/07 01:14:13;;;;;;;68.30;29.20;;;;;;;13.17;62.98;99620.03;4995403;28;20061;-60
2020/12/07 01:16:40;;;;;;;67.15;30.30;;;;;;;13.26;62.68;99635.72;5013277;28;20060;-60
2020/12/07 01:19:07;;;;;;;67.13;29.50;;;;;;;12.72;66.07;99629.72;4994372;28;20054;-60
2020/12/07 01:21:35;;;;;;;74.55;30.55;;;;;;;12.75;65.56;99639.97;4995610;28;20029;-59
2020/12/07 01:24:01;;;;;;;68.32;29.95;;;;;;;13.27;63.64;99638.19;4994936;28;20041;-60
2020/12/07 01:26:28;;;;;;;74.03;32.00;;;;;;;13.20;63.31;99626.78;4995642;28;20456;-60
2020/12/07 01:28:53;;;;;;;;;;;;;;;13.50;62.53;99633.75;4995193;28;20042;-59
2020/12/07 01:31:19;;;;;;;58.87;27.20;;;;;;;13.51;61.86;99626.53;5011844;28;19913;-60
2020/12/07 01:33:47;;;;;;;72.47;30.70;;;;;;;13.18;63.72;99626.22;5011158;28;20104;-59
2020/12/07 01:36:13;;;;;;;60.38;27.30;;;;;;;13.31;62.31;99628.59;5002568;28;20084;-61
2020/12/07 01:38:39;;;;;;;64.10;28.60;;;;;;;12.58;68.08;99641.75;5001314;28;20120;-60
2020/12/07 01:41:07;;;;;;;65.90;28.67;;;;;;;12.74;80.58;99632.13;4983994;28;20286;-60
2020/12/07 01:43:33;;;;;;;61.05;29.35;;;;;;;12.73;67.85;99627.84;4982828;28;20130;-61
2020/12/07 01:45:59;;;;;;;68.93;30.17;;;;;;;12.83;68.93;99624.53;4986190;28;20121;-59
2020/12/07 01:48:29;;;;;;;65.53;29.48;;;;;;;13.22;65.09;99624.69;4986057;28;20041;-61
2020/12/07 01:50:58;;;;;;;64.75;29.88;;;;;;;12.75;66.01;99623.03;4985234;28;20035;-61
2020/12/07 01:53:24;;;;;;;72.03;28.50;;;;;;;13.25;64.93;99620.69;4983854;28;20034;-60
2020/12/07 01:55:52;;;;;;;68.80;28.60;;;;;;;13.08;66.21;99609.94;5001997;28;20030;-61
2020/12/07 01:58:18;;;;;;;66.03;28.00;;;;;;;13.14;86.61;99601.72;4983232;28;20081;-61
2020/12/07 02:00:43;;;;;;;60.77;26.47;;;;;;;13.12;65.99;99608.38;4969720;28;20477;-60
2020/12/07 02:03:11;;;;;;;78.18;27.17;;;;;;;13.56;63.48;99607.78;5010130;28;20321;-61
2020/12/07 02:05:38;;;;;;;65.55;27.65;;;;;;;13.36;63.98;99586.75;4995025;28;20151;-60
2020/12/07 02:08:15;;;;;;;49.65;25.42;;;;;;;12.87;66.87;99604.22;4994301;28;20117;-61
2020/12/07 02:11:10;;;;;;;59.15;26.10;;;;;;;13.28;64.57;99572.69;5004382;28;20054;-60
2020/12/07 02:13:38;;;;;;;49.65;24.27;;;;;;;11.55;76.62;99574.22;4995370;28;20100;-61
2020/12/07 02:16:04;;;;;;;56.45;25.42;;;;;;;11.80;79.75;99589.22;4994244;28;20186;-60
2020/12/07 02:18:36;;;;;;;49.45;23.17;;;;;;;11.66;78.94;99579.78;4979548;28;20049;-60
2020/12/07 02:21:02;;;;;;;52.42;22.77;;;;;;;11.35;81.34;99597.81;4994086;28;20168;-61
2020/12/07 02:24:00;;;;;;;50.42;24.40;;;;;;;11.94;77.86;99597.00;4968219;28;20483;-61
2020/12/07 02:26:28;;;;;;;57.53;26.73;;;;;;;12.46;73.95;99582.81;4994837;28;20046;-61
2020/12/07 02:28:57;;;;;;;53.65;23.33;;;;;;;12.48;72.55;99581.53;4994018;28;20487;-60
2020/12/07 02:31:29;;;;;;;62.47;25.33;;;;;;;12.51;72.78;99574.06;4996978;28;20060;-60
2020/12/07 02:33:56;;;;;;;;;;;;;;;12.43;72.56;99570.69;4982561;28;20084;-60
2020/12/07 02:36:22;;;;;;;54.10;22.80;;;;;;;12.30;72.98;99562.94;4998588;28;19909;-61
2020/12/07 02:38:53;;;;;;;50.42;22.70;;;;;;;12.97;68.80;99545.38;4997778;28;20080;-60
2020/12/07 02:41:22;;;;;;;43.40;22.52;;;;;;;14.04;62.85;99538.28;4998745;28;20045;-60
2020/12/07 02:43:48;;;;;;;51.47;23.40;;;;;;;13.90;61.53;99552.13;4998570;28;20036;-61
2020/12/07 02:46:13;;;;;;;49.20;22.00;;;;;;;14.07;60.38;99539.69;4998273;28;20176;-61
2020/12/07 02:48:39;;;;;;;47.15;22.35;;;;;;;13.65;63.48;99531.09;4998374;28;20064;-61
2020/12/07 02:51:09;;;;;;;50.95;23.88;;;;;;;14.19;60.86;99543.84;4997705;28;20508;-60
2020/12/07 02:53:35;;;;;;;46.42;23.02;;;;;;;13.54;63.95;99538.19;4982442;28;20042;-60
2020/12/07 02:56:01;;;;;;;49.63;22.20;;;;;;;14.10;61.19;99547.25;4997827;28;20034;-60
2020/12/07 02:58:29;;;;;;;44.90;22.58;;;;;;;13.70;63.41;99536.53;4986938;28;20042;-60
2020/12/07 03:00:57;;;;;;;49.00;24.23;;;;;;;13.45;65.43;99540.47;5013043;28;20042;-59
2020/12/07 03:03:23;;;;;;;50.28;24.95;;;;;;;13.51;65.15;99522.56;4998217;28;20038;-61
2020/12/07 03:05:49;;;;;;;50.30;23.60;;;;;;;14.43;61.03;99526.66;4998070;28;20030;-60
2020/12/07 03:08:18;;;;;;;51.50;23.85;;;;;;;13.88;62.41;99522.00;4998019;28;20397;-60
2020/12/07 03:10:44;;;;;;;52.27;22.27;;;;;;;13.62;64.74;99513.59;4998113;28;20124;-60
2020/12/07 03:13:10;;;;;;;40.50;20.45;;;;;;;13.25;66.25;99510.59;4997421;28;20125;-59
2020/12/07 03:15:39;;;;;;;53.58;22.35;;;;;;;12.59;69.01;99502.09;5012268;28;20069;-59
2020/12/07 03:18:06;;;;;;;56.05;24.40;;;;;;;13.25;67.65;99503.38;4997204;28;20492;-60
2020/12/07 03:20:41;;;;;;;67.38;25.00;;;;;;;12.03;77.64;99505.31;4997901;28;20108;-60
2020/12/07 03:23:07;;;;;;;57.25;24.95;;;;;;;11.73;79.79;99500.13;4997177;28;20473;-60
2020/12/07 03:25:33;;;;;;;56.13;23.48;;;;;;;12.04;77.69;99487.41;4997716;28;20137;-61
2020/12/07 03:27:59;;;;;;;55.03;23.25;;;;;;;11.97;77.74;99476.78;4997152;28;20038;-60
2020/12/07 03:30:25;;;;;;;63.80;25.42;;;;;;;12.07;77.04;99494.13;5013887;28;20038;-61
2020/12/07 03:32:52;;;;;;;56.42;23.38;;;;;;;11.75;80.35;99482.78;5013353;28;20038;-59
2020/12/07 03:35:18;;;;;;;59.65;25.23;;;;;;;11.54;81.65;99478.03;4997679;28;20096;-61
2020/12/07 03:37:44;;;;;;;65.13;26.33;;;;;;;11.66;81.74;99483.38;4997547;28;20050;-60
2020/12/07 03:40:10;;;;;;;58.20;24.97;;;;;;;11.48;81.95;99487.81;5014521;28;20044;-59
2020/12/07 03:42:42;;;;;;;61.35;26.00;;;;;;;13.11;71.53;99486.81;5012846;28;20042;-59
2020/12/07 03:45:10;;;;;;;60.60;25.73;;;;;;;12.48;74.71;99485.00;5013082;28;20053;-61
2020/12/07 03:47:36;;;;;;;52.80;25.37;;;;;;;12.83;72.08;99482.34;5013802;28;20393;-61
2020/12/07 03:50:03;;;;;;;54.55;24.67;;;;;;;13.24;68.68;99477.59;5012975;28;20589;-60
2020/12/07 03:52:30;;;;;;;57.63;24.90;;;;;;;12.29;75.11;99465.59;4997134;28;20096;-61
2020/12/07 03:55:00;;;;;;;55.80;26.05;;;;;;;12.79;70.91;99473.94;4996658;28;20457;-60
2020/12/07 03:57:26;;;;;;;65.68;27.70;;;;;;;12.26;75.44;99482.16;5013674;28;20038;-61
2020/12/07 03:59:52;;;;;;;57.08;26.70;;;;;;;12.72;72.10;99473.31;5013740;28;20465;-60
2020/12/07 04:02:18;;;;;;;63.90;27.95;;;;;;;12.94;70.39;99478.78;4997778;28;20049;-60
2020/12/07 04:04:54;;;;;;;62.37;27.93;;;;;;;12.54;72.71;99482.41;5013514;28;20088;-60
2020/12/07 04:07:23;;;;;;;55.80;27.42;;;;;;;12.47;73.31;99459.25;5013486;28;20682;-61
2020/12/07 04:09:51;;;;;;;68.28;29.00;;;;;;;12.81;71.66;99465.66;4996907;28;20045;-60
2020/12/07 04:12:16;;;;;;;46.73;22.77;;;;;;;13.03;71.19;99473.78;5013815;28;20041;-60
2020/12/07 04:14:42;;;;;;;67.20;31.97;;;;;;;13.22;69.21;99487.78;5014571;28;20046;-60
2020/12/07 04:17:07;;;;;;;68.93;32.30;;;;;;;12.27;75.06;99489.16;5013506;28;20053;-61
2020/12/07 04:19:33;;;;;;;70.47;32.73;;;;;;;12.41;74.55;99495.03;5014077;28;20618;-60
2020/12/07 04:21:58;;;;;;;69.57;32.40;;;;;;;12.85;72.92;99505.19;5013722;28;20033;-60
2020/12/07 04:24:23;;;;;;;62.73;30.73;;;;;;;13.05;69.45;99501.22;5014273;28;20183;-61
2020/12/07 04:26:49;;;;;;;70.73;33.03;;;;;;;12.97;71.08;99499.75;5014306;28;20413;-60
2020/12/07 04:29:14;;;;;;;72.37;34.73;;;;;;;13.18;69.68;99498.19;5013525;28;20088;-59
2020/12/07 04:31:40;;;;;;;68.90;33.03;;;;;;;13.67;67.41;99507.47;5013907;28;20037;-61
2020/12/07 04:34:05;;;;;;;65.47;31.60;;;;;;;21.75;58.27;99485.88;5013473;28;20735;-61
2020/12/07 04:36:31;;;;;;;64.50;30.07;;;;;;;15.76;53.15;99491.00;5014108;28;20069;-61
2020/12/07 04:38:56;;;;;;;64.67;29.57;;;;;;;14.38;60.52;99500.50;5013427;28;20037;-60
2020/12/07 04:41:22;;;;;;;61.10;28.93;;;;;;;14.12;63.53;99502.91;5013706;28;20030;-61
2020/12/07 04:43:49;;;;;;;54.40;27.30;;;;;;;13.57;66.18;99492.03;5013955;28;20504;-61
2020/12/07 04:46:15;;;;;;;57.50;28.42;;;;;;;13.40;67.97;99484.00;5013162;28;20030;-61
2020/12/07 04:48:42;;;;;;;58.78;28.27;;;;;;;12.65;72.70;99480.72;5013295;28;20465;-60
2020/12/07 04:51:09;;;;;;;;;;;;;;;13.04;71.60;99481.59;5013327;28;20065;-62
2020/12/07 04:53:36;;;;;;;61.83;27.35;;;;;;;12.96;71.91;99471.28;5013666;28;19920;-60
2020/12/07 04:56:02;;;;;;;66.55;28.33;;;;;;;13.19;69.94;99466.78;5013043;28;20042;-61
2020/12/07 04:58:28;;;;;;;62.53;28.98;;;;;;;12.18;75.30;99469.97;5013281;28;20490;-61
2020/12/07 05:00:54;;;;;;;65.05;28.75;;;;;;;11.93;80.14;99456.06;5013535;28;20050;-60
2020/12/07 05:03:19;;;;;;;72.28;29.60;;;;;;;12.23;78.74;99460.41;5012873;28;20092;-60
2020/12/07 05:05:45;;;;;;;61.05;28.33;;;;;;;12.27;78.68;99461.56;5013216;28;20351;-60
2020/12/07 05:08:12;;;;;;;61.70;27.27;;;;;;;12.38;78.15;99458.00;4995245;28;20389;-61
2020/12/07 05:10:42;;;;;;;65.57;29.47;;;;;;;11.66;83.14;99472.66;5013686;28;20505;-61
2020/12/07 05:15:39;;;;;;;70.18;27.90;;;;;;;12.17;78.49;99454.94;4995588;28;20415;-60
2020/12/07 05:18:04;;;;;;;65.78;28.77;;;;;;;11.83;81.12;99449.47;4995134;28;20393;-61
2020/12/07 05:20:30;;;;;;;66.23;29.03;;;;;;;12.35;79.76;99450.44;5013364;28;20048;-59
2020/12/07 05:22:56;;;;;;;70.28;29.80;;;;;;;12.71;75.96;99428.75;5013085;28;20470;-61
2020/12/07 05:25:23;;;;;;;67.07;29.30;;;;;;;12.56;76.78;99437.38;5012525;28;20385;-61
2020/12/07 05:27:50;;;;;;;68.22;29.63;;;;;;;12.51;77.54;99445.34;5011704;28;20046;-61
2020/12/07 05:30:29;;;;;;;58.38;26.60;;;;;;;12.08;79.65;99450.19;4994815;28;20488;-59
2020/12/07 05:32:54;;;;;;;56.92;25.00;;;;;;;12.05;81.02;99440.78;5012769;28;20624;-61
2020/12/07 05:35:20;;;;;;;52.43;24.80;;;;;;;12.25;80.48;99437.66;5012403;28;20070;-60
2020/12/07 05:37:45;;;;;;;58.30;27.33;;;;;;;13.39;71.26;99438.59;5012926;28;20029;-60
2020/12/07 05:40:14;;;;;;;61.93;27.57;;;;;;;15.11;58.98;99433.84;5012291;28;20026;-62
2020/12/07 05:42:40;;;;;;;69.68;29.33;;;;;;;14.73;60.17;99426.56;5012817;28;20038;-61
2020/12/07 05:45:07;;;;;;;64.93;28.77;;;;;;;14.49;62.32;99424.19;5011975;28;20046;-61
2020/12/07 05:47:34;;;;;;;;;;;;;;;14.35;61.68;99414.97;5013060;28;20271;-61
2020/12/07 05:50:03;;;;;;;63.85;29.73;;;;;;;13.18;70.33;99406.91;5012747;28;19917;-61
2020/12/07 05:52:40;;;;;;;75.88;31.13;;;;;;;13.39;69.08;99415.22;5011670;28;20064;-61
2020/12/07 05:55:06;;;;;;;70.07;30.95;;;;;;;12.69;74.70;99417.47;5013002;28;20493;-61
2020/12/07 05:57:45;;;;;;;71.95;29.27;;;;;;;13.27;71.45;99436.81;5013872;28;20062;-60
2020/12/07 06:00:18;;;;;;;67.38;28.73;;;;;;;12.47;76.94;99435.09;5012522;28;20049;-61
2020/12/07 06:02:47;;;;;;;75.90;30.27;;;;;;;13.11;72.31;99443.88;4995226;28;20034;-61
2020/12/07 06:05:13;;;;;;;65.50;27.95;;;;;;;13.35;71.39;99454.38;5011227;28;20073;-61
2020/12/07 06:07:41;;;;;;;76.93;31.30;;;;;;;12.83;74.66;99442.09;5012243;28;20135;-62
2020/12/07 06:10:06;;;;;;;65.88;27.50;;;;;;;13.11;72.79;99454.59;5011989;28;20073;-61
2020/12/07 06:12:38;;;;;;;69.00;28.30;;;;;;;12.95;72.23;99442.81;5012537;28;20169;-61
2020/12/07 06:15:04;;;;;;;65.78;26.92;;;;;;;12.75;74.34;99454.03;5011828;28;20034;-61
2020/12/07 06:17:32;;;;;;;63.15;25.25;;;;;;;13.08;72.79;99448.91;4995095;28;20062;-62
2020/12/07 06:19:58;;;;;;;64.65;25.92;;;;;;;13.43;70.52;99459.34;5012583;28;20092;-60
2020/12/07 06:22:24;;;;;;;62.35;23.83;;;;;;;13.31;71.72;99469.38;5011785;28;20474;-59
2020/12/07 06:24:52;;;;;;;58.27;21.80;;;;;;;13.17;71.79;99474.28;4994763;28;20044;-60
2020/12/07 06:27:18;;;;;;;59.03;24.02;;;;;;;13.66;69.50;99476.28;5011646;28;20100;-60
2020/12/07 06:30:03;;;;;;;53.85;23.75;;;;;;;12.81;73.25;99487.97;5012344;28;20042;-60
2020/12/07 06:32:46;;;;;;;49.80;21.88;;;;;;;12.87;73.73;99491.50;5001190;28;20034;-59
2020/12/07 06:35:12;;;;;;;60.70;27.15;;;;;;;13.37;72.02;99487.16;5002006;28;20168;-60
2020/12/07 06:37:43;;;;;;;57.85;25.75;;;;;;;13.80;68.06;99492.06;5001186;28;20117;-60
2020/12/07 06:40:09;;;;;;;58.15;25.02;;;;;;;13.11;71.98;99472.56;5001372;28;20034;-60
2020/12/07 06:42:40;;;;;;;61.10;27.75;;;;;;;13.32;70.16;99484.41;5007090;28;20045;-60
2020/12/07 06:45:08;;;;;;;60.20;27.15;;;;;;;14.05;66.53;99468.16;4989792;28;20050;-59
2020/12/07 06:47:33;;;;;;;65.97;28.40;;;;;;;13.35;70.89;99481.25;5001364;28;20108;-61
2020/12/07 06:50:10;;;;;;;73.30;31.20;;;;;;;13.76;68.06;99472.94;5001479;28;20069;-60
2020/12/07 06:52:40;;;;;;;72.25;30.88;;;;;;;12.56;76.11;99473.03;5002093;28;20509;-59
2020/12/07 06:55:09;;;;;;;65.05;29.83;;;;;;;12.31;80.21;99468.84;5001965;28;20041;-59
2020/12/07 06:57:47;;;;;;;68.57;30.85;;;;;;;12.36;79.70;99468.16;4999671;28;20037;-61
2020/12/07 07:00:23;;;;;;;68.40;29.27;;;;;;;12.17;81.63;99467.53;5000118;28;20027;-60
2020/12/07 07:02:51;;;;;;;65.57;30.10;;;;;;;12.46;84.09;99460.28;5000606;28;20398;-60
2020/12/07 07:05:19;;;;;;;78.13;31.60;;;;;;;12.52;79.56;99458.50;4967423;28;20072;-61
2020/12/07 07:07:45;;;;;;;69.30;28.50;;;;;;;12.50;78.91;99457.91;5006214;28;20041;-60
2020/12/07 07:10:13;;;;;;;65.75;30.17;;;;;;;12.85;76.71;99456.91;5005246;28;20470;-61
2020/12/07 07:12:40;;;;;;;62.38;28.35;;;;;;;12.58;79.54;99446.81;5013768;28;20418;-61
2020/12/07 07:15:08;;;;;;;84.88;29.92;;;;;;;13.63;71.47;99455.31;5010233;28;20038;-60
2020/12/07 07:17:36;;;;;;;68.35;31.77;;;;;;;13.75;72.35;99455.19;5007335;28;20050;-60
2020/12/07 07:20:05;;;;;;;71.25;30.90;;;;;;;13.29;73.65;99466.91;4994440;28;20513;-60
2020/12/07 07:22:30;;;;;;;65.03;31.40;;;;;;;12.92;77.75;99462.09;5010143;28;20186;-60
2020/12/07 07:30:23;;;;;;;61.73;29.40;;;;;;;13.60;71.38;99478.09;4988523;28;20062;-60
2020/12/07 07:32:51;;;;;;;65.72;29.10;;;;;;;14.35;65.34;99476.81;4996874;28;20038;-60
2020/12/07 07:35:20;;;;;;;66.80;28.92;;;;;;;13.48;79.00;99478.22;4995458;28;20037;-60
2020/12/07 07:37:46;;;;;;;63.75;28.55;;;;;;;12.63;79.14;99480.94;4999551;28;20030;-59
2020/12/07 07:40:14;;;;;;;59.92;27.88;;;;;;;13.15;73.01;99468.34;5010304;28;20056;-56
2020/12/07 07:42:58;;;;;;;62.55;26.88;;;;;;;13.34;70.32;99468.88;4992480;28;20405;-60
2020/12/07 07:45:29;;;;;;;62.97;27.95;;;;;;;13.32;70.59;99477.16;4995379;28;20038;-60
2020/12/07 08:15:51;;;;;;;69.53;28.90;;;;;;;13.23;71.46;99505.50;5014411;28;20038;-60
2020/12/07 08:17:52;;;;;;;61.78;29.40;;;;;;;12.25;78.04;99520.75;5000067;28;20092;-60
2020/12/07 08:20:19;;;;;;;62.83;28.60;;;;;;;12.24;79.29;99511.09;5013358;28;20034;-60
2020/12/07 08:23:01;;;;;;;63.17;29.08;;;;;;;11.89;80.92;99520.81;5013469;28;20044;-61
2020/12/07 08:25:49;;;;;;;66.95;30.23;;;;;;;12.39;77.13;99515.13;5012924;28;20038;-60
2020/12/07 08:28:32;;;;;;;73.30;30.38;;;;;;;12.30;78.16;99531.56;5013103;28;20038;-61
2020/12/07 08:31:15;;;;;;;73.93;34.13;;;;;;;12.27;81.43;99525.88;5013988;28;20045;-60
2020/12/07 08:34:01;;;;;;;72.22;30.20;;;;;;;11.05;86.41;99544.13;5013811;28;20041;-59
2020/12/07 08:36:29;;;;;;;68.22;31.05;;;;;;;11.21;87.33;99536.47;5013217;28;20046;-60
2020/12/07 08:38:55;;;;;;;79.88;33.72;;;;;;;11.48;84.67;99534.16;5012388;28;20042;-61
2020/12/07 08:41:22;;;;;;;68.43;30.30;;;;;;;11.97;80.67;99542.94;5012351;28;20037;-59
2020/12/07 08:43:50;;;;;;;74.13;33.75;;;;;;;12.01;79.18;99546.81;5013339;28;20042;-60
2020/12/07 08:46:19;;;;;;;74.18;32.80;;;;;;;11.49;83.88;99556.38;5012741;28;20549;-59
2020/12/07 08:48:45;;;;;;;72.15;31.80;;;;;;;11.13;93.45;99560.91;5013709;28;20077;-61
2020/12/07 08:51:10;;;;;;;71.10;32.65;;;;;;;11.11;90.11;99563.00;5012793;28;20529;-58
2020/12/07 08:53:37;;;;;;;78.97;33.07;;;;;;;11.85;82.70;99554.50;5012859;28;20481;-61
2020/12/07 08:56:04;;;;;;;86.13;36.72;;;;;;;11.88;82.75;99553.22;5012578;28;20038;-61
2020/12/07 08:58:30;;;;;;;83.05;37.70;;;;;;;11.79;83.90;99563.50;5011874;28;20048;-60
2020/12/07 09:00:55;;;;;;;81.37;34.47;;;;;;;10.46;93.60;99582.22;5008671;28;20034;-60
2020/12/07 09:03:21;;;;;;;79.70;36.03;;;;;;;10.95;91.45;99562.63;5012385;28;20037;-60
2020/12/07 09:05:46;;;;;;;83.30;34.60;;;;;;;10.44;92.95;99559.41;5007965;28;20034;-60
2020/12/07 09:08:12;;;;;;;81.27;36.47;;;;;;;10.39;99.09;99565.44;4992373;28;20370;-60
2020/12/07 09:10:37;;;;;;;64.23;30.13;;;;;;;10.93;100.00;99559.34;4993270;28;20498;-59
2020/12/07 09:13:03;;;;;;;90.30;35.67;;;;;;;10.64;100.00;99579.72;5008855;28;20034;-60
2020/12/07 09:15:31;;;;;;;87.00;38.30;;;;;;;10.80;99.67;99559.53;5012295;28;20823;-61
2020/12/07 09:17:56;;;;;;;88.03;37.85;;;;;;;10.50;100.00;99571.06;5013000;28;20053;-61
2020/12/07 09:20:22;;;;;;;87.60;37.77;;;;;;;10.15;100.00;99559.97;5012462;28;20613;-60
2020/12/07 09:22:47;;;;;;;97.70;39.90;;;;;;;10.07;100.00;99570.94;4992989;28;20121;-61
2020/12/07 09:25:13;;;;;;;100.77;38.63;;;;;;;12.36;84.62;99567.34;4975233;28;20093;-60
2020/12/07 09:27:38;;;;;;;102.27;39.80;;;;;;;12.46;82.21;99572.91;4993360;28;20084;-59
2020/12/07 09:30:05;;;;;;;101.17;39.97;;;;;;;11.64;89.74;99573.84;4992942;28;20034;-61
2020/12/07 09:32:31;;;;;;;101.63;37.67;;;;;;;10.86;100.00;99583.53;4992459;28;20113;-61
2020/12/07 09:34:56;;;;;;;89.90;38.10;;;;;;;10.97;98.23;99589.94;4992626;28;20118;-59
2020/12/07 09:37:22;;;;;;;83.57;32.97;;;;;;;10.82;97.76;99578.84;4993841;28;20174;-60
2020/12/07 09:39:47;;;;;;;96.43;38.27;;;;;;;11.27;92.36;99589.06;5012491;28;20100;-61
2020/12/07 09:42:13;;;;;;;84.63;36.73;;;;;;;11.09;98.69;99583.81;5011672;28;20052;-58
2020/12/07 09:44:38;;;;;;;96.80;36.37;;;;;;;10.81;97.73;99593.25;5012376;28;20505;-60
2020/12/07 09:47:04;;;;;;;94.33;38.60;;;;;;;10.50;100.00;99592.44;5012439;28;20434;-59
2020/12/07 09:49:29;;;;;;;91.13;39.70;;;;;;;10.70;100.00;99581.47;5011886;28;20499;-58
2020/12/07 09:51:55;;;;;;;101.17;40.60;;;;;;;10.99;97.61;99587.06;5012322;28;20022;-60
2020/12/07 09:54:20;;;;;;;87.60;37.63;;;;;;;10.88;99.71;99589.44;5012134;28;20121;-61
2020/12/07 09:56:46;;;;;;;94.07;40.47;;;;;;;10.92;98.13;99587.16;5012291;28;20493;-60
2020/12/07 09:59:11;;;;;;;99.80;41.03;;;;;;;10.76;98.85;99581.41;5011495;28;20041;-60
2020/12/07 10:01:37;;;;;;;92.93;38.27;;;;;;;10.90;95.29;99573.19;5000332;28;20072;-60
2020/12/07 10:04:02;;;;;;;100.00;39.30;;;;;;;10.94;97.70;99582.38;4992146;28;20501;-61
2020/12/07 10:06:29;;;;;;;93.30;38.50;;;;;;;11.69;89.95;99585.50;4991175;28;20121;-60
2020/12/07 10:08:54;;;;;;;;;;;;;;;11.68;87.66;99593.75;4992337;28;20292;-59
2020/12/07 10:11:20;;;;;;;96.97;39.67;;;;;;;10.91;98.59;99564.13;5003858;28;19918;-60
2020/12/07 10:13:47;;;;;;;99.73;41.63;;;;;;;10.68;100.00;99589.75;5006915;28;20038;-61
2020/12/07 10:16:13;;;;;;;104.07;42.90;;;;;;;10.79;97.61;99593.50;4991995;28;20045;-61
2020/12/07 10:18:40;;;;;;;86.78;37.95;;;;;;;10.89;97.00;99576.91;4992918;28;20038;-61
2020/12/07 10:21:05;;;;;;;;;;;;;;;10.60;100.00;99590.03;4992669;28;20046;-58
2020/12/07 10:23:31;;;;;;;115.30;47.33;;;;;;;11.58;91.96;99587.13;5007501;28;19941;-61
2020/12/07 10:25:56;;;;;;;110.97;44.10;;;;;;;10.68;97.21;99586.25;5010894;28;20397;-60
2020/12/07 10:28:22;;;;;;;134.43;47.93;;;;;;;10.71;97.57;99581.25;5011447;28;20092;-60
2020/12/07 10:30:48;;;;;;;116.90;47.83;;;;;;;10.93;97.18;99583.44;5011180;28;20404;-60
2020/12/07 10:33:13;;;;;;;127.32;47.58;;;;;;;10.95;97.22;99584.00;4993824;28;20038;-61
2020/12/07 10:35:39;;;;;;;117.10;48.33;;;;;;;10.41;100.00;99587.44;5010497;28;20498;-61
2020/12/07 10:38:04;;;;;;;118.53;48.20;;;;;;;10.65;100.00;99592.88;5011337;28;20397;-60
2020/12/07 10:40:30;;;;;;;116.20;47.17;;;;;;;11.66;88.17;99585.13;5011450;28;20505;-60
2020/12/07 10:42:57;;;;;;;119.60;43.13;;;;;;;10.28;100.00;99596.41;4994556;28;20033;-60
2020/12/07 10:45:22;;;;;;;;;;;;;;;10.06;100.00;99609.38;5011686;28;20034;-60
2020/12/07 10:47:50;;;;;;;105.73;42.53;;;;;;;10.51;98.45;99607.44;5011547;28;20032;-61
2020/12/07 10:50:16;;;;;;;118.65;47.15;;;;;;;11.03;95.50;99610.44;5011069;28;20047;-61
2020/12/07 10:52:42;;;;;;;127.75;50.55;;;;;;;11.04;92.64;99606.69;4999398;28;20038;-61
2020/12/07 10:55:07;;;;;;;118.70;46.80;;;;;;;10.37;99.53;99607.56;4995479;28;20478;-60
2020/12/07 10:57:33;;;;;;;141.30;50.90;;;;;;;10.76;98.80;99610.00;4995496;28;20259;-60
2020/12/07 10:59:58;;;;;;;140.70;52.07;;;;;;;10.69;96.19;99612.78;4996084;28;20042;-61
2020/12/07 11:02:27;;;;;;;144.73;51.63;;;;;;;10.85;93.24;99621.22;5012507;28;20030;-60
2020/12/07 11:04:52;;;;;;;152.07;54.20;;;;;;;10.38;98.90;99605.72;5001745;28;20057;-60
2020/12/07 11:07:18;;;;;;;160.50;52.57;;;;;;;11.27;92.01;99605.13;5005709;28;20469;-59
2020/12/07 11:09:44;;;;;;;144.63;51.00;;;;;;;10.85;95.65;99611.31;4995566;28;20152;-60
2020/12/07 11:12:13;;;;;;;158.93;52.93;;;;;;;10.92;94.28;99621.09;4995070;28;20077;-58
2020/12/07 11:14:39;;;;;;;163.10;57.70;;;;;;;10.33;100.00;99611.72;4994993;28;20129;-60
2020/12/07 11:17:05;;;;;;;150.80;53.33;;;;;;;10.21;99.98;99618.88;4995312;28;20073;-60
2020/12/07 11:19:31;;;;;;;159.80;55.60;;;;;;;10.67;98.71;99614.03;4993821;28;20548;-60
2020/12/07 11:21:56;;;;;;;162.65;55.88;;;;;;;10.25;100.00;99609.38;4994933;28;20173;-60
2020/12/07 11:24:22;;;;;;;160.67;53.27;;;;;;;10.43;100.00;99611.25;4994924;28;20389;-60
2020/12/07 11:26:47;;;;;;;164.37;57.60;;;;;;;10.05;100.00;99618.44;5014856;28;20381;-60
2020/12/07 11:29:13;;;;;;;180.47;63.33;;;;;;;10.30;100.00;99612.19;5014257;28;20037;-59
2020/12/07 11:31:38;;;;;;;166.73;55.50;;;;;;;9.89;100.00;99617.16;5001379;28;20030;-60
2020/12/07 11:34:04;;;;;;;169.63;52.10;;;;;;;10.34;100.00;99616.03;5008030;28;20041;-61
2020/12/07 11:36:29;;;;;;;151.03;51.90;;;;;;;10.16;99.53;99608.84;5012700;28;20044;-60
2020/12/07 11:41:58;;;;;;;148.10;54.17;;;;;;;11.35;89.33;99617.34;4994659;28;20387;-59
2020/12/07 11:44:23;;;;;;;141.60;51.50;;;;;;;10.30;97.50;99621.03;5014068;28;20529;-61
2020/12/07 11:46:57;;;;;;;139.97;48.73;;;;;;;10.16;100.00;99619.53;5012408;28;20173;-60
2020/12/07 11:49:23;;;;;;;146.32;49.13;;;;;;;10.34;100.00;99621.38;5013213;28;20038;-59
2020/12/07 11:51:49;;;;;;;151.23;51.63;;;;;;;10.29;100.00;99619.41;5014007;28;20095;-60
2020/12/07 11:54:14;;;;;;;141.55;50.72;;;;;;;10.12;100.00;99611.16;5013815;28;20488;-61
2020/12/07 11:56:40;;;;;;;147.90;51.60;;;;;;;9.70;100.00;99625.13;5013185;28;20107;-60